Кипелово

Карта отелей и гостиниц, располагающихся рядом с аэропортом Кипелово :

Кипелово
Вологда
Вологодская область 59° 11' 25.44" N, 39° 7' 24.24" E
Код аэродрома ИКАО
XLWF
Код аэродрома RU
ЬЛВФ
Координаты
N59.19040° E039.12340°
Превышение над уровнем моря
184
Основная полоса
17/35
Курс магнитный
170/350
Длина основной ВПП
3500
Ширина основной ВПП
66
Покрытие основной ВПП
Твёрдое (бетон)
Освещение ВПП
Постоянное
Тип: 
Аэродром
Класс аэродрома: 
Принадлежность: 
МО
Статус: 
Действующий
Сайт: 
E-mail аэродрома: 
Страна: 
Россия
Регион: 
Вологодская область
Город: 
Вологда
Дополнительная информация: 
Оператор: морская авиация СФ (ВМФ России). Нкр.=(400)м. Наименование гарнизона "Федотово" ("Вологда-18"). В настоящее время базируются противолодочные Ту-142МК и самолеты-ретрансляторы Ту-142МР. Гражданский индекс: ULWF / УЛВФ.

Найти трансфер

С помощью этой формы Вы можете найти трансфер из аэропорта Кипелово в город, аэропорт или вокзал:

Карта места

Javascript is required to view this map.

Погода в аэропортах:

Авиационная погода в Алматы

Регион: 
Погода METAR: 
UAAA 241800Z 15001MPS 1400 R23L/P2000D BR FU NSC 02/M00 Q1020 R23L/CLRD65 NOSIG
Время наблюдения
2021-10-24T18:00:00Z
Температура C
2.0
Точка росы
0.0
Направление ветра
150
Скорость ветра (узлы)
2
Метео видимость
0.87
Явления погоды
FU BR
Условия полета
LIFR
Аэропорт подробнее: 

Авиационная погода в Москве - Остафьево

Погода METAR: 
UUMO 241700Z 32006MPS 9000 -SHSN BKN058CB 01/M01 Q1021 RESHSN R25/290050 NOSIG RMK QFE750/1001
Время наблюдения
2021-10-24T17:00:00Z
Температура C
1.0
Точка росы
-1.0
Направление ветра
320
Скорость ветра (узлы)
12
Метео видимость
5.59
Явления погоды
-SHSN
Условия полета
VFR
Аэропорт подробнее: 

Авиационная погода в Мирном

Регион: 
Погода METAR: 
UERR 241700Z 21003MPS 9999 -SHSN FEW009 OVC020CB M00/M01 Q0997 R25/591032 NOSIG RMK QFE717/0956
Время наблюдения
2021-10-24T17:00:00Z
Температура C
0.0
Точка росы
-1.0
Направление ветра
210
Скорость ветра (узлы)
6
Метео видимость
6.21
Явления погоды
-SHSN
Условия полета
MVFR
Аэропорт подробнее: 

Авиационная погода в Ботсфьорде

Регион: 
Погода METAR: 
ENBS 241420Z 28005KT 9999 -SHSN FEW016 SCT023 BKN045 M01/M03 Q1012
Время наблюдения
2021-10-24T14:20:00Z
Температура C
-1.0
Точка росы
-3.0
Направление ветра
280
Скорость ветра (узлы)
5
Метео видимость
6.21
Явления погоды
-SHSN
Условия полета
VFR